sensor_id;sensor_type;location;lat;lon;timestamp;pressure;altitude;pressure_sealevel;temperature;humidity
23574;BME280;11965;53.640;10.050;2022-12-05T00:02:22;101907.38;;;3.65;100.00
23574;BME280;11965;53.640;10.050;2022-12-05T00:04:49;101904.63;;;3.65;100.00
23574;BME280;11965;53.640;10.050;2022-12-05T00:07:17;101897.69;;;3.72;100.00
23574;BME280;11965;53.640;10.050;2022-12-05T00:09:51;101883.97;;;3.72;100.00
23574;BME280;11965;53.640;10.050;2022-12-05T00:12:18;101874.97;;;3.70;100.00
23574;BME280;11965;53.640;10.050;2022-12-05T00:14:45;101883.09;;;3.72;100.00
23574;BME280;11965;53.640;10.050;2022-12-05T00:17:12;101877.00;;;3.80;100.00
23574;BME280;11965;53.640;10.050;2022-12-05T00:19:39;101886.19;;;3.79;100.00
23574;BME280;11965;53.640;10.050;2022-12-05T00:22:07;101889.44;;;3.84;100.00
23574;BME280;11965;53.640;10.050;2022-12-05T00:24:36;101897.06;;;3.69;100.00
23574;BME280;11965;53.640;10.050;2022-12-05T00:27:03;101888.06;;;3.78;100.00
23574;BME280;11965;53.640;10.050;2022-12-05T00:29:30;101887.06;;;3.68;100.00
23574;BME280;11965;53.640;10.050;2022-12-05T00:31:58;101886.34;;;3.66;100.00
23574;BME280;11965;53.640;10.050;2022-12-05T00:34:25;101877.22;;;3.65;100.00
23574;BME280;11965;53.640;10.050;2022-12-05T00:36:52;101881.72;;;3.78;100.00
23574;BME280;11965;53.640;10.050;2022-12-05T00:39:19;101872.88;;;3.74;100.00
23574;BME280;11965;53.640;10.050;2022-12-05T00:41:48;101874.63;;;3.75;100.00
23574;BME280;11965;53.640;10.050;2022-12-05T00:44:15;101880.47;;;3.70;100.00
23574;BME280;11965;53.640;10.050;2022-12-05T00:46:43;101877.34;;;3.75;100.00
23574;BME280;11965;53.640;10.050;2022-12-05T00:49:11;101870.16;;;3.74;100.00
23574;BME280;11965;53.640;10.050;2022-12-05T00:51:40;101874.63;;;3.75;100.00
23574;BME280;11965;53.640;10.050;2022-12-05T00:54:09;101871.75;;;3.76;100.00
23574;BME280;11965;53.640;10.050;2022-12-05T00:56:37;101869.38;;;3.83;100.00
23574;BME280;11965;53.640;10.050;2022-12-05T00:59:06;101865.88;;;3.81;100.00
23574;BME280;11965;53.640;10.050;2022-12-05T01:01:37;101868.50;;;3.94;100.00
23574;BME280;11965;53.640;10.050;2022-12-05T01:04:07;101866.00;;;3.91;100.00
23574;BME280;11965;53.640;10.050;2022-12-05T01:06:36;101864.66;;;3.85;100.00
23574;BME280;11965;53.640;10.050;2022-12-05T01:09:05;101866.03;;;3.80;100.00
23574;BME280;11965;53.640;10.050;2022-12-05T01:11:33;101860.28;;;3.83;100.00
23574;BME280;11965;53.640;10.050;2022-12-05T01:14:01;101867.91;;;3.79;100.00
23574;BME280;11965;53.640;10.050;2022-12-05T01:16:33;101869.88;;;3.88;100.00
23574;BME280;11965;53.640;10.050;2022-12-05T01:19:05;101867.25;;;3.87;100.00
23574;BME280;11965;53.640;10.050;2022-12-05T01:21:33;101878.97;;;3.89;100.00
23574;BME280;11965;53.640;10.050;2022-12-05T01:24:00;101872.63;;;3.88;100.00
23574;BME280;11965;53.640;10.050;2022-12-05T01:26:27;101874.22;;;3.91;100.00
23574;BME280;11965;53.640;10.050;2022-12-05T01:28:55;101868.38;;;3.95;100.00
23574;BME280;11965;53.640;10.050;2022-12-05T01:31:24;101870.00;;;3.87;100.00
23574;BME280;11965;53.640;10.050;2022-12-05T01:33:55;101867.75;;;3.92;100.00
23574;BME280;11965;53.640;10.050;2022-12-05T01:36:25;101861.88;;;3.96;100.00
23574;BME280;11965;53.640;10.050;2022-12-05T01:38:53;101866.75;;;3.93;100.00
23574;BME280;11965;53.640;10.050;2022-12-05T01:41:24;101864.03;;;3.93;100.00
23574;BME280;11965;53.640;10.050;2022-12-05T01:43:56;101858.28;;;3.96;100.00
23574;BME280;11965;53.640;10.050;2022-12-05T01:46:24;101860.13;;;4.07;100.00
23574;BME280;11965;53.640;10.050;2022-12-05T01:48:58;101859.88;;;3.98;100.00
23574;BME280;11965;53.640;10.050;2022-12-05T01:51:27;101853.28;;;4.01;100.00
23574;BME280;11965;53.640;10.050;2022-12-05T01:53:54;101853.88;;;4.05;100.00
23574;BME280;11965;53.640;10.050;2022-12-05T01:56:22;101852.25;;;4.13;100.00
23574;BME280;11965;53.640;10.050;2022-12-05T01:58:51;101847.88;;;4.11;100.00
23574;BME280;11965;53.640;10.050;2022-12-05T02:01:19;101854.13;;;4.13;100.00
23574;BME280;11965;53.640;10.050;2022-12-05T02:03:50;101857.50;;;4.16;100.00
23574;BME280;11965;53.640;10.050;2022-12-05T02:06:22;101845.41;;;4.08;100.00
23574;BME280;11965;53.640;10.050;2022-12-05T02:08:51;101844.38;;;4.20;100.00
23574;BME280;11965;53.640;10.050;2022-12-05T02:11:22;101841.03;;;4.16;100.00
23574;BME280;11965;53.640;10.050;2022-12-05T02:14:06;101839.66;;;4.11;100.00
23574;BME280;11965;53.640;10.050;2022-12-05T02:16:49;101836.53;;;4.15;100.00
23574;BME280;11965;53.640;10.050;2022-12-05T02:19:41;101839.16;;;4.17;100.00
23574;BME280;11965;53.640;10.050;2022-12-05T02:22:41;101832.88;;;4.26;100.00
23574;BME280;11965;53.640;10.050;2022-12-05T02:28:32;101832.16;;;4.13;100.00
23574;BME280;11965;53.640;10.050;2022-12-05T02:31:12;101828.78;;;4.20;100.00
23574;BME280;11965;53.640;10.050;2022-12-05T02:33:47;101826.31;;;4.17;100.00
23574;BME280;11965;53.640;10.050;2022-12-05T02:36:22;101822.44;;;4.20;100.00
23574;BME280;11965;53.640;10.050;2022-12-05T02:39:01;101827.38;;;4.26;100.00
23574;BME280;11965;53.640;10.050;2022-12-05T02:41:36;101818.41;;;4.24;100.00
23574;BME280;11965;53.640;10.050;2022-12-05T02:44:09;101818.94;;;4.18;100.00
23574;BME280;11965;53.640;10.050;2022-12-05T02:46:42;101817.94;;;4.19;100.00
23574;BME280;11965;53.640;10.050;2022-12-05T02:49:17;101810.84;;;4.16;100.00
23574;BME280;11965;53.640;10.050;2022-12-05T02:51:49;101805.09;;;4.19;100.00
23574;BME280;11965;53.640;10.050;2022-12-05T02:54:21;101815.06;;;4.20;100.00
23574;BME280;11965;53.640;10.050;2022-12-05T02:56:52;101805.59;;;4.25;100.00
23574;BME280;11965;53.640;10.050;2022-12-05T02:59:20;101801.94;;;4.24;100.00
23574;BME280;11965;53.640;10.050;2022-12-05T03:01:49;101804.88;;;4.11;100.00
23574;BME280;11965;53.640;10.050;2022-12-05T03:04:19;101806.84;;;4.20;100.00
23574;BME280;11965;53.640;10.050;2022-12-05T03:06:51;101806.19;;;4.28;100.00
23574;BME280;11965;53.640;10.050;2022-12-05T03:09:23;101805.22;;;4.18;100.00
23574;BME280;11965;53.640;10.050;2022-12-05T03:11:58;101800.25;;;4.12;100.00
23574;BME280;11965;53.640;10.050;2022-12-05T03:14:30;101794.38;;;4.16;100.00
23574;BME280;11965;53.640;10.050;2022-12-05T03:17:06;101799.72;;;4.18;100.00
23574;BME280;11965;53.640;10.050;2022-12-05T03:19:48;101798.97;;;4.27;100.00
23574;BME280;11965;53.640;10.050;2022-12-05T03:22:25;101795.97;;;4.19;100.00
23574;BME280;11965;53.640;10.050;2022-12-05T03:24:54;101796.72;;;4.21;100.00
23574;BME280;11965;53.640;10.050;2022-12-05T03:27:26;101799.47;;;4.21;100.00
23574;BME280;11965;53.640;10.050;2022-12-05T03:30:02;101787.88;;;4.17;100.00
23574;BME280;11965;53.640;10.050;2022-12-05T03:32:38;101795.84;;;4.20;100.00
23574;BME280;11965;53.640;10.050;2022-12-05T03:35:13;101795.75;;;4.22;100.00
23574;BME280;11965;53.640;10.050;2022-12-05T03:37:50;101793.94;;;4.32;100.00
23574;BME280;11965;53.640;10.050;2022-12-05T03:40:26;101792.59;;;4.27;100.00
23574;BME280;11965;53.640;10.050;2022-12-05T03:43:04;101799.72;;;4.18;100.00
23574;BME280;11965;53.640;10.050;2022-12-05T03:45:41;101789.13;;;4.25;100.00
23574;BME280;11965;53.640;10.050;2022-12-05T03:48:17;101791.94;;;4.34;100.00
23574;BME280;11965;53.640;10.050;2022-12-05T03:50:51;101797.19;;;4.26;100.00
23574;BME280;11965;53.640;10.050;2022-12-05T03:53:24;101790.84;;;4.26;100.00
23574;BME280;11965;53.640;10.050;2022-12-05T03:56:01;101795.75;;;4.22;100.00
23574;BME280;11965;53.640;10.050;2022-12-05T03:58:34;101790.00;;;4.25;100.00
23574;BME280;11965;53.640;10.050;2022-12-05T04:01:08;101801.41;;;4.41;100.00
23574;BME280;11965;53.640;10.050;2022-12-05T04:03:42;101795.81;;;4.32;100.00
23574;BME280;11965;53.640;10.050;2022-12-05T04:06:17;101798.69;;;4.30;100.00
23574;BME280;11965;53.640;10.050;2022-12-05T04:08:53;101795.22;;;4.28;100.00
23574;BME280;11965;53.640;10.050;2022-12-05T04:11:26;101793.94;;;4.32;100.00
23574;BME280;11965;53.640;10.050;2022-12-05T04:14:02;101794.06;;;4.31;100.00
23574;BME280;11965;53.640;10.050;2022-12-05T04:16:40;101799.69;;;4.29;100.00
23574;BME280;11965;53.640;10.050;2022-12-05T04:19:33;101803.56;;;4.27;100.00
23574;BME280;11965;53.640;10.050;2022-12-05T04:22:17;101804.47;;;4.27;100.00
23574;BME280;11965;53.640;10.050;2022-12-05T04:24:46;101797.41;;;4.34;100.00
23574;BME280;11965;53.640;10.050;2022-12-05T04:27:40;101796.22;;;4.27;100.00
23574;BME280;11965;53.640;10.050;2022-12-05T04:30:14;101799.34;;;4.23;100.00
23574;BME280;11965;53.640;10.050;2022-12-05T04:32:45;101801.22;;;4.22;100.00
23574;BME280;11965;53.640;10.050;2022-12-05T04:35:21;101797.84;;;4.18;100.00
23574;BME280;11965;53.640;10.050;2022-12-05T04:37:57;101801.34;;;4.20;100.00
23574;BME280;11965;53.640;10.050;2022-12-05T04:40:32;101806.94;;;4.19;100.00
23574;BME280;11965;53.640;10.050;2022-12-05T04:43:03;101802.84;;;4.13;100.00
23574;BME280;11965;53.640;10.050;2022-12-05T04:45:36;101797.91;;;4.07;100.00
23574;BME280;11965;53.640;10.050;2022-12-05T04:48:10;101804.13;;;4.09;100.00
23574;BME280;11965;53.640;10.050;2022-12-05T04:50:43;101802.63;;;4.05;100.00
23574;BME280;11965;53.640;10.050;2022-12-05T04:53:13;101810.25;;;4.02;100.00
23574;BME280;11965;53.640;10.050;2022-12-05T04:55:46;101809.75;;;3.96;100.00
23574;BME280;11965;53.640;10.050;2022-12-05T04:58:19;101804.88;;;4.00;100.00
23574;BME280;11965;53.640;10.050;2022-12-05T05:00:53;101794.81;;;4.01;100.00
23574;BME280;11965;53.640;10.050;2022-12-05T05:03:26;101799.81;;;3.95;100.00
23574;BME280;11965;53.640;10.050;2022-12-05T05:05:57;101800.66;;;3.96;100.00
23574;BME280;11965;53.640;10.050;2022-12-05T05:08:26;101805.28;;;3.95;100.00
23574;BME280;11965;53.640;10.050;2022-12-05T05:11:05;101801.28;;;3.99;100.00
23574;BME280;11965;53.640;10.050;2022-12-05T05:13:35;101798.31;;;3.91;100.00
23574;BME280;11965;53.640;10.050;2022-12-05T05:16:03;101795.44;;;3.93;100.00
23574;BME280;11965;53.640;10.050;2022-12-05T05:18:31;101789.81;;;3.94;100.00
23574;BME280;11965;53.640;10.050;2022-12-05T05:21:00;101787.06;;;3.94;100.00
23574;BME280;11965;53.640;10.050;2022-12-05T05:23:27;101792.28;;;3.97;100.00
23574;BME280;11965;53.640;10.050;2022-12-05T05:25:55;101786.97;;;3.96;100.00
23574;BME280;11965;53.640;10.050;2022-12-05T05:28:22;101788.69;;;3.97;100.00
23574;BME280;11965;53.640;10.050;2022-12-05T05:30:49;101786.09;;;3.95;100.00
23574;BME280;11965;53.640;10.050;2022-12-05T05:33:17;101793.56;;;3.93;100.00
23574;BME280;11965;53.640;10.050;2022-12-05T05:35:44;101795.19;;;3.96;100.00
23574;BME280;11965;53.640;10.050;2022-12-05T05:38:13;101792.28;;;3.97;100.00
23574;BME280;11965;53.640;10.050;2022-12-05T05:40:40;101794.31;;;3.95;100.00
23574;BME280;11965;53.640;10.050;2022-12-05T05:43:08;101795.28;;;3.94;100.00
23574;BME280;11965;53.640;10.050;2022-12-05T05:45:36;101788.47;;;3.89;100.00
23574;BME280;11965;53.640;10.050;2022-12-05T05:48:04;101797.09;;;3.84;100.00
23574;BME280;11965;53.640;10.050;2022-12-05T05:50:31;101797.81;;;3.86;100.00
23574;BME280;11965;53.640;10.050;2022-12-05T05:52:58;101790.72;;;3.95;100.00
23574;BME280;11965;53.640;10.050;2022-12-05T05:55:26;101804.06;;;3.88;100.00
23574;BME280;11965;53.640;10.050;2022-12-05T05:57:54;101801.41;;;3.87;100.00
23574;BME280;11965;53.640;10.050;2022-12-05T06:00:21;101797.97;;;3.85;100.00
23574;BME280;11965;53.640;10.050;2022-12-05T06:02:48;101799.84;;;3.84;100.00
23574;BME280;11965;53.640;10.050;2022-12-05T06:05:15;101795.84;;;3.77;100.00
23574;BME280;11965;53.640;10.050;2022-12-05T06:07:42;101796.09;;;3.85;100.00
23574;BME280;11965;53.640;10.050;2022-12-05T06:10:10;101796.44;;;3.81;100.00
23574;BME280;11965;53.640;10.050;2022-12-05T06:12:39;101797.44;;;3.91;100.00
23574;BME280;11965;53.640;10.050;2022-12-05T06:15:08;101798.94;;;3.84;100.00
23574;BME280;11965;53.640;10.050;2022-12-05T06:17:35;101802.94;;;3.80;100.00
23574;BME280;11965;53.640;10.050;2022-12-05T06:20:02;101801.19;;;3.79;100.00
23574;BME280;11965;53.640;10.050;2022-12-05T06:22:29;101798.81;;;3.85;100.00
23574;BME280;11965;53.640;10.050;2022-12-05T06:24:57;101800.06;;;3.81;100.00
23574;BME280;11965;53.640;10.050;2022-12-05T06:27:24;101814.53;;;3.72;100.00
23574;BME280;11965;53.640;10.050;2022-12-05T06:29:52;101803.31;;;3.75;100.00
23574;BME280;11965;53.640;10.050;2022-12-05T06:32:19;101807.44;;;3.69;100.00
23574;BME280;11965;53.640;10.050;2022-12-05T06:34:46;101810.69;;;3.63;100.00
23574;BME280;11965;53.640;10.050;2022-12-05T06:37:13;101811.06;;;3.59;100.00
23574;BME280;11965;53.640;10.050;2022-12-05T06:39:41;101811.69;;;3.62;100.00
23574;BME280;11965;53.640;10.050;2022-12-05T06:42:08;101816.19;;;3.63;100.00
23574;BME280;11965;53.640;10.050;2022-12-05T06:44:35;101811.91;;;3.70;100.00
23574;BME280;11965;53.640;10.050;2022-12-05T06:47:04;101815.19;;;3.64;100.00
23574;BME280;11965;53.640;10.050;2022-12-05T06:49:31;101808.34;;;3.59;100.00
23574;BME280;11965;53.640;10.050;2022-12-05T06:51:59;101817.53;;;3.69;100.00
23574;BME280;11965;53.640;10.050;2022-12-05T06:54:26;101815.69;;;3.58;100.00
23574;BME280;11965;53.640;10.050;2022-12-05T06:56:53;101816.81;;;3.56;100.00
23574;BME280;11965;53.640;10.050;2022-12-05T06:59:21;101818.53;;;3.57;100.00
23574;BME280;11965;53.640;10.050;2022-12-05T07:01:49;101815.53;;;3.60;100.00
23574;BME280;11965;53.640;10.050;2022-12-05T07:04:19;101816.56;;;3.59;100.00
23574;BME280;11965;53.640;10.050;2022-12-05T07:06:50;101816.56;;;3.59;100.00
23574;BME280;11965;53.640;10.050;2022-12-05T07:09:19;101817.78;;;3.54;100.00
23574;BME280;11965;53.640;10.050;2022-12-05T07:11:48;101821.19;;;3.47;100.00
23574;BME280;11965;53.640;10.050;2022-12-05T07:14:16;101816.56;;;3.47;100.00
23574;BME280;11965;53.640;10.050;2022-12-05T07:16:43;101808.94;;;3.51;100.00
23574;BME280;11965;53.640;10.050;2022-12-05T07:19:10;101820.44;;;3.45;100.00
23574;BME280;11965;53.640;10.050;2022-12-05T07:21:40;101812.56;;;3.40;100.00
23574;BME280;11965;53.640;10.050;2022-12-05T07:24:07;101817.78;;;3.43;100.00
23574;BME280;11965;53.640;10.050;2022-12-05T07:26:34;101810.84;;;3.39;100.00
23574;BME280;11965;53.640;10.050;2022-12-05T07:29:01;101822.78;;;3.38;100.00
23574;BME280;11965;53.640;10.050;2022-12-05T07:31:27;101825.25;;;3.30;100.00
23574;BME280;11965;53.640;10.050;2022-12-05T07:33:54;101819.53;;;3.33;100.00
23574;BME280;11965;53.640;10.050;2022-12-05T07:36:21;101823.16;;;3.34;100.00
23574;BME280;11965;53.640;10.050;2022-12-05T07:38:55;101809.84;;;3.29;100.00
23574;BME280;11965;53.640;10.050;2022-12-05T07:41:25;101813.56;;;3.28;100.00
23574;BME280;11965;53.640;10.050;2022-12-05T07:43:55;101816.44;;;3.26;100.00
23574;BME280;11965;53.640;10.050;2022-12-05T07:46:23;101813.94;;;3.23;100.00
23574;BME280;11965;53.640;10.050;2022-12-05T07:48:51;101808.22;;;3.26;100.00
23574;BME280;11965;53.640;10.050;2022-12-05T07:51:19;101815.19;;;3.30;100.00
23574;BME280;11965;53.640;10.050;2022-12-05T07:53:48;101818.31;;;3.37;100.00
23574;BME280;11965;53.640;10.050;2022-12-05T07:56:17;101809.72;;;3.30;100.00
23574;BME280;11965;53.640;10.050;2022-12-05T07:58:46;101815.91;;;3.21;100.00
23574;BME280;11965;53.640;10.050;2022-12-05T08:01:16;101818.91;;;3.18;100.00
23574;BME280;11965;53.640;10.050;2022-12-05T08:03:44;101818.56;;;3.23;100.00
23574;BME280;11965;53.640;10.050;2022-12-05T08:06:13;101813.31;;;3.20;100.00
23574;BME280;11965;53.640;10.050;2022-12-05T08:08:42;101812.94;;;3.13;100.00
23574;BME280;11965;53.640;10.050;2022-12-05T08:11:11;101817.03;;;3.19;100.00
23574;BME280;11965;53.640;10.050;2022-12-05T08:13:41;101808.81;;;3.19;100.00
23574;BME280;11965;53.640;10.050;2022-12-05T08:16:10;101818.50;;;3.12;100.00
23574;BME280;11965;53.640;10.050;2022-12-05T08:18:39;101824.00;;;3.12;100.00
23574;BME280;11965;53.640;10.050;2022-12-05T08:21:09;101819.28;;;3.14;100.00
23574;BME280;11965;53.640;10.050;2022-12-05T08:23:37;101814.41;;;3.06;100.00
23574;BME280;11965;53.640;10.050;2022-12-05T08:26:07;101810.44;;;3.10;100.00
23574;BME280;11965;53.640;10.050;2022-12-05T08:28:36;101816.53;;;3.02;100.00
23574;BME280;11965;53.640;10.050;2022-12-05T08:31:07;101822.50;;;3.07;100.00
23574;BME280;11965;53.640;10.050;2022-12-05T08:33:35;101823.97;;;3.00;100.00
23574;BME280;11965;53.640;10.050;2022-12-05T08:36:04;101829.00;;;3.06;100.00
23574;BME280;11965;53.640;10.050;2022-12-05T08:38:33;101828.47;;;3.01;100.00
23574;BME280;11965;53.640;10.050;2022-12-05T08:41:00;101833.06;;;3.01;100.00
23574;BME280;11965;53.640;10.050;2022-12-05T08:43:29;101837.66;;;3.00;100.00
23574;BME280;11965;53.640;10.050;2022-12-05T08:45:57;101840.56;;;2.99;100.00
23574;BME280;11965;53.640;10.050;2022-12-05T08:48:28;101835.44;;;3.05;100.00
23574;BME280;11965;53.640;10.050;2022-12-05T08:50:58;101856.50;;;3.05;100.00
23574;BME280;11965;53.640;10.050;2022-12-05T08:53:25;101842.81;;;3.16;100.00
23574;BME280;11965;53.640;10.050;2022-12-05T08:55:52;101842.91;;;3.03;100.00
23574;BME280;11965;53.640;10.050;2022-12-05T08:58:20;101846.16;;;3.08;100.00
23574;BME280;11965;53.640;10.050;2022-12-05T09:00:47;101855.09;;;2.99;100.00
23574;BME280;11965;53.640;10.050;2022-12-05T09:03:15;101856.13;;;2.98;100.00
23574;BME280;11965;53.640;10.050;2022-12-05T09:05:44;101848.13;;;2.95;100.00
23574;BME280;11965;53.640;10.050;2022-12-05T09:08:11;101851.63;;;2.97;100.00
23574;BME280;11965;53.640;10.050;2022-12-05T09:10:38;101858.19;;;2.95;100.00
23574;BME280;11965;53.640;10.050;2022-12-05T09:13:05;101847.75;;;2.88;100.00
23574;BME280;11965;53.640;10.050;2022-12-05T09:15:37;101852.34;;;2.88;100.00
23574;BME280;11965;53.640;10.050;2022-12-05T09:18:04;101848.09;;;2.84;100.00
23574;BME280;11965;53.640;10.050;2022-12-05T09:20:32;101853.97;;;2.91;100.00
23574;BME280;11965;53.640;10.050;2022-12-05T09:23:01;101850.97;;;2.82;100.00
23574;BME280;11965;53.640;10.050;2022-12-05T09:25:28;101857.31;;;2.83;100.00
23574;BME280;11965;53.640;10.050;2022-12-05T09:27:56;101857.56;;;2.80;100.00
23574;BME280;11965;53.640;10.050;2022-12-05T09:30:24;101853.31;;;2.87;100.00
23574;BME280;11965;53.640;10.050;2022-12-05T09:32:51;101851.94;;;2.81;100.00
23574;BME280;11965;53.640;10.050;2022-12-05T09:35:19;101861.44;;;2.88;100.00
23574;BME280;11965;53.640;10.050;2022-12-05T09:37:46;101857.78;;;2.77;100.00
23574;BME280;11965;53.640;10.050;2022-12-05T09:40:17;101857.66;;;2.78;100.00
23574;BME280;11965;53.640;10.050;2022-12-05T09:42:57;101858.16;;;2.72;100.00
23574;BME280;11965;53.640;10.050;2022-12-05T09:45:36;101855.91;;;2.66;100.00
23574;BME280;11965;53.640;10.050;2022-12-05T09:48:10;101853.16;;;2.66;100.00
23574;BME280;11965;53.640;10.050;2022-12-05T09:50:43;101854.13;;;2.65;100.00
23574;BME280;11965;53.640;10.050;2022-12-05T09:53:22;101852.78;;;2.71;100.00
23574;BME280;11965;53.640;10.050;2022-12-05T09:55:56;101845.44;;;2.71;100.00
23574;BME280;11965;53.640;10.050;2022-12-05T09:58:39;101843.94;;;2.67;100.00
23574;BME280;11965;53.640;10.050;2022-12-05T10:01:24;101848.53;;;2.67;100.00
23574;BME280;11965;53.640;10.050;2022-12-05T10:04:11;101843.19;;;2.65;100.00
23574;BME280;11965;53.640;10.050;2022-12-05T10:06:52;101840.78;;;2.60;100.00
23574;BME280;11965;53.640;10.050;2022-12-05T10:09:43;101839.47;;;2.66;100.00
23574;BME280;11965;53.640;10.050;2022-12-05T10:12:32;101851.03;;;2.70;100.00
23574;BME280;11965;53.640;10.050;2022-12-05T10:15:12;101848.31;;;2.70;100.00
23574;BME280;11965;53.640;10.050;2022-12-05T10:17:45;101840.56;;;2.63;100.00
23574;BME280;11965;53.640;10.050;2022-12-05T10:20:20;101847.53;;;2.68;100.00
23574;BME280;11965;53.640;10.050;2022-12-05T10:22:55;101842.06;;;2.68;100.00
23574;BME280;11965;53.640;10.050;2022-12-05T10:25:26;101843.41;;;2.62;100.00
23574;BME280;11965;53.640;10.050;2022-12-05T10:28:00;101842.22;;;2.66;100.00
23574;BME280;11965;53.640;10.050;2022-12-05T10:30:32;101841.56;;;2.62;100.00
23574;BME280;11965;53.640;10.050;2022-12-05T10:33:04;101845.03;;;2.64;100.00
23574;BME280;11965;53.640;10.050;2022-12-05T10:35:39;101836.72;;;2.66;100.00
23574;BME280;11965;53.640;10.050;2022-12-05T10:38:21;101837.94;;;2.62;100.00
23574;BME280;11965;53.640;10.050;2022-12-05T10:40:52;101830.75;;;2.61;100.00
23574;BME280;11965;53.640;10.050;2022-12-05T10:43:24;101834.97;;;2.65;100.00
23574;BME280;11965;53.640;10.050;2022-12-05T10:45:52;101830.34;;;2.65;100.00
23574;BME280;11965;53.640;10.050;2022-12-05T10:48:21;101832.72;;;2.59;100.00
23574;BME280;11965;53.640;10.050;2022-12-05T10:50:50;101825.03;;;2.64;100.00
23574;BME280;11965;53.640;10.050;2022-12-05T10:53:22;101832.38;;;2.63;100.00
23574;BME280;11965;53.640;10.050;2022-12-05T10:55:51;101822.63;;;2.59;100.00
23574;BME280;11965;53.640;10.050;2022-12-05T10:58:23;101825.13;;;2.62;100.00
23574;BME280;11965;53.640;10.050;2022-12-05T11:00:53;101816.66;;;2.65;100.00
23574;BME280;11965;53.640;10.050;2022-12-05T11:03:26;101819.69;;;2.74;100.00
23574;BME280;11965;53.640;10.050;2022-12-05T11:05:55;101809.25;;;2.79;100.00
23574;BME280;11965;53.640;10.050;2022-12-05T11:08:24;101819.69;;;2.74;100.00
23574;BME280;11965;53.640;10.050;2022-12-05T11:11:04;101813.81;;;2.67;100.00
23574;BME280;11965;53.640;10.050;2022-12-05T11:13:35;101804.78;;;2.78;100.00
23574;BME280;11965;53.640;10.050;2022-12-05T11:16:04;101808.22;;;2.69;100.00
23574;BME280;11965;53.640;10.050;2022-12-05T11:18:33;101811.06;;;2.56;100.00
23574;BME280;11965;53.640;10.050;2022-12-05T11:21:12;101803.88;;;2.66;100.00
23574;BME280;11965;53.640;10.050;2022-12-05T11:23:39;101804.59;;;2.68;100.00
23574;BME280;11965;53.640;10.050;2022-12-05T11:26:17;101807.34;;;2.68;100.00
23574;BME280;11965;53.640;10.050;2022-12-05T11:28:46;101802.13;;;2.65;100.00
23574;BME280;11965;53.640;10.050;2022-12-05T11:31:25;101807.25;;;2.70;100.00
23574;BME280;11965;53.640;10.050;2022-12-05T11:34:11;101798.19;;;2.80;100.00
23574;BME280;11965;53.640;10.050;2022-12-05T11:36:45;101790.09;;;2.79;100.00
23574;BME280;11965;53.640;10.050;2022-12-05T11:39:14;101799.28;;;2.78;100.00
23574;BME280;11965;53.640;10.050;2022-12-05T11:42:08;101793.94;;;2.76;100.00
23574;BME280;11965;53.640;10.050;2022-12-05T11:44:59;101784.50;;;2.80;100.00
23574;BME280;11965;53.640;10.050;2022-12-05T11:47:53;101789.47;;;2.75;100.00
23574;BME280;11965;53.640;10.050;2022-12-05T11:50:38;101795.81;;;2.76;100.00
23574;BME280;11965;53.640;10.050;2022-12-05T11:53:23;101781.34;;;2.74;100.00
23574;BME280;11965;53.640;10.050;2022-12-05T11:56:05;101780.84;;;2.69;100.00
23574;BME280;11965;53.640;10.050;2022-12-05T11:58:53;101784.84;;;2.76;100.00
23574;BME280;11965;53.640;10.050;2022-12-05T12:01:35;101780.13;;;2.78;100.00
23574;BME280;11965;53.640;10.050;2022-12-05T12:04:43;101787.31;;;2.68;100.00
23574;BME280;11965;53.640;10.050;2022-12-05T12:07:24;101780.47;;;2.73;100.00
23574;BME280;11965;53.640;10.050;2022-12-05T12:10:06;101779.03;;;2.80;100.00
23574;BME280;11965;53.640;10.050;2022-12-05T12:12:45;101778.66;;;2.85;100.00
23574;BME280;11965;53.640;10.050;2022-12-05T12:15:39;101786.38;;;2.80;100.00
23574;BME280;11965;53.640;10.050;2022-12-05T12:18:23;101790.84;;;2.81;100.00
23574;BME280;11965;53.640;10.050;2022-12-05T12:21:06;101792.28;;;2.62;100.00
23574;BME280;11965;53.640;10.050;2022-12-05T12:23:51;101786.44;;;2.67;100.00
23574;BME280;11965;53.640;10.050;2022-12-05T12:26:37;101778.50;;;2.75;100.00
23574;BME280;11965;53.640;10.050;2022-12-05T12:29:23;101780.13;;;2.78;100.00
23574;BME280;11965;53.640;10.050;2022-12-05T12:32:10;101776.25;;;2.69;100.00
23574;BME280;11965;53.640;10.050;2022-12-05T12:37:47;101774.91;;;2.75;100.00
23574;BME280;11965;53.640;10.050;2022-12-05T12:40:21;101776.78;;;2.74;100.00
23574;BME280;11965;53.640;10.050;2022-12-05T12:43:04;101771.31;;;2.85;100.00
23574;BME280;11965;53.640;10.050;2022-12-05T12:46:01;101770.66;;;2.82;100.00
23574;BME280;11965;53.640;10.050;2022-12-05T12:48:53;101763.22;;;2.84;100.00
23574;BME280;11965;53.640;10.050;2022-12-05T12:51:24;101766.19;;;2.81;100.00
23574;BME280;11965;53.640;10.050;2022-12-05T12:57:06;101763.31;;;2.71;100.00
23574;BME280;11965;53.640;10.050;2022-12-05T12:59:56;101768.16;;;2.68;100.00
23574;BME280;11965;53.640;10.050;2022-12-05T13:02:35;101766.69;;;2.63;100.00
23574;BME280;11965;53.640;10.050;2022-12-05T13:05:14;101755.66;;;2.52;100.00
23574;BME280;11965;53.640;10.050;2022-12-05T13:07:50;101759.31;;;2.53;100.00
23574;BME280;11965;53.640;10.050;2022-12-05T13:10:27;101759.31;;;2.53;100.00
23574;BME280;11965;53.640;10.050;2022-12-05T13:12:58;101753.41;;;2.46;100.00
23574;BME280;11965;53.640;10.050;2022-12-05T13:15:33;101753.06;;;2.51;100.00
23574;BME280;11965;53.640;10.050;2022-12-05T13:18:02;101750.84;;;2.56;100.00